Time;durP1;ratioP1;P1;durP2;ratioP2;P2;SDS_P1;SDS_P2;PMS_P1;PMS_P2;Temp;Humidity;BMP_temperature;BMP_pressure;BME280_temperature;BME280_humidity;BME280_pressure;Samples;Min_cycle;Max_cycle;Signal;HPM_P1;HPM_P2
2023/08/28 00:02:18;;;;;;;0.60;0.60;;;9.90;99.90;;;;;;4995076;28;20369;-72
2023/08/28 00:04:44;;;;;;;0.50;0.50;;;9.90;99.90;;;;;;4995423;28;20203;-72
2023/08/28 00:07:10;;;;;;;1.05;0.98;;;9.90;99.90;;;;;;4994985;28;20218;-72
2023/08/28 00:09:35;;;;;;;1.98;1.80;;;9.90;99.90;;;;;;4995353;28;20192;-73
2023/08/28 00:12:02;;;;;;;0.70;0.70;;;9.90;99.90;;;;;;4994931;28;20231;-75
2023/08/28 00:14:28;;;;;;;0.60;0.60;;;9.80;99.90;;;;;;4995497;28;20326;-73
2023/08/28 00:16:54;;;;;;;0.50;0.50;;;9.80;99.90;;;;;;4995392;28;20223;-74
2023/08/28 00:19:20;;;;;;;0.60;0.60;;;9.80;99.90;;;;;;4993890;28;20227;-75
2023/08/28 00:21:46;;;;;;;0.75;0.75;;;9.70;99.90;;;;;;4995646;28;20655;-74
2023/08/28 00:24:12;;;;;;;0.57;0.57;;;9.70;99.90;;;;;;4995132;28;20202;-76
2023/08/28 00:26:37;;;;;;;0.50;0.50;;;9.70;99.90;;;;;;5007092;28;20241;-74
2023/08/28 00:29:03;;;;;;;0.60;0.60;;;9.70;99.90;;;;;;5014629;28;20194;-75
2023/08/28 00:31:29;;;;;;;0.60;0.60;;;9.70;99.90;;;;;;5013009;28;20210;-75
2023/08/28 00:33:55;;;;;;;0.70;0.70;;;9.70;99.90;;;;;;5014352;28;20258;-74
2023/08/28 00:36:21;;;;;;;0.73;0.73;;;9.70;99.90;;;;;;5014248;28;20278;-74
2023/08/28 00:38:46;;;;;;;0.60;0.60;;;9.80;99.90;;;;;;5014330;28;20726;-75
2023/08/28 00:41:12;;;;;;;0.80;0.80;;;9.90;99.90;;;;;;5013926;28;20195;-74
2023/08/28 00:43:38;;;;;;;0.75;0.75;;;9.80;99.90;;;;;;5000590;28;21435;-74
2023/08/28 00:46:05;;;;;;;0.60;0.60;;;9.90;99.90;;;;;;4994194;28;20223;-74
2023/08/28 00:48:32;;;;;;;0.60;0.60;;;9.80;99.90;;;;;;4994243;28;20292;-74
2023/08/28 00:51:00;;;;;;;0.50;0.50;;;9.80;99.90;;;;;;4994551;28;20192;-74
2023/08/28 00:53:26;;;;;;;0.60;0.60;;;9.80;99.90;;;;;;4994248;28;20191;-75
2023/08/28 00:55:53;;;;;;;0.50;0.50;;;9.80;99.90;;;;;;4993519;28;20207;-75
2023/08/28 00:58:20;;;;;;;0.40;0.40;;;9.90;99.90;;;;;;4994017;28;20559;-75
2023/08/28 01:00:46;;;;;;;0.52;0.52;;;9.90;99.90;;;;;;4994091;28;20639;-75
2023/08/28 01:03:12;;;;;;;0.55;0.55;;;9.90;99.90;;;;;;4992994;28;20199;-73
2023/08/28 01:06:18;;;;;;;0.60;0.60;;;9.90;99.90;;;;;;5049069;22;21222;-81
2023/08/28 01:09:04;;;;;;;0.57;0.57;;;9.90;99.90;;;;;;5029741;28;20198;-81
2023/08/28 01:11:36;;;;;;;0.55;0.55;;;9.90;99.90;;;;;;5013819;28;20218;-82
2023/08/28 01:14:15;;;;;;;0.50;0.50;;;9.90;99.90;;;;;;5013760;28;20280;-82
2023/08/28 01:16:44;;;;;;;0.60;0.60;;;9.90;99.90;;;;;;5013357;28;20186;-81
2023/08/28 01:19:26;;;;;;;0.60;0.60;;;9.90;99.90;;;;;;5028881;28;20199;-81
2023/08/28 01:21:58;;;;;;;0.80;0.80;;;9.90;99.90;;;;;;5013111;28;20198;-82
2023/08/28 01:24:27;;;;;;;0.52;0.52;;;9.90;99.90;;;;;;5013620;28;20183;-82
2023/08/28 01:26:53;;;;;;;0.50;0.50;;;9.90;99.90;;;;;;5012134;28;20713;-81
2023/08/28 01:29:19;;;;;;;0.57;0.57;;;10.00;99.90;;;;;;5013178;28;20201;-81
2023/08/28 01:31:44;;;;;;;0.60;0.60;;;10.00;99.90;;;;;;5013427;28;20291;-81
2023/08/28 01:34:10;;;;;;;0.50;0.50;;;10.00;99.90;;;;;;5028512;28;20191;-81
2023/08/28 01:36:52;;;;;;;0.55;0.55;;;10.10;99.90;;;;;;5028466;28;20198;-81
2023/08/28 01:39:30;;;;;;;0.60;0.60;;;10.20;99.90;;;;;;5028214;28;20191;-81
2023/08/28 01:41:57;;;;;;;0.60;0.60;;;10.20;99.90;;;;;;5011999;28;20202;-82
2023/08/28 01:44:27;;;;;;;0.60;0.60;;;10.20;99.90;;;;;;5013101;28;20198;-81
2023/08/28 01:46:53;;;;;;;0.60;0.60;;;10.30;99.90;;;;;;5011875;28;20304;-81
2023/08/28 01:49:18;;;;;;;0.60;0.60;;;10.20;99.90;;;;;;5024878;28;20196;-81
2023/08/28 01:51:44;;;;;;;0.60;0.60;;;10.20;99.90;;;;;;4992405;28;20227;-82
2023/08/28 01:54:10;;;;;;;0.50;0.50;;;10.30;99.90;;;;;;4992132;28;20199;-82
2023/08/28 01:56:35;;;;;;;0.60;0.60;;;10.40;99.90;;;;;;4992020;28;20199;-82
2023/08/28 01:59:02;;;;;;;3.83;0.98;;;10.40;99.90;;;;;;4992290;28;20230;-82
2023/08/28 02:01:28;;;;;;;0.60;0.60;;;10.50;99.90;;;;;;4991844;28;20203;-81
2023/08/28 02:03:54;;;;;;;0.60;0.60;;;10.60;99.90;;;;;;5018883;28;20666;-82
2023/08/28 02:06:20;;;;;;;0.60;0.60;;;10.70;99.90;;;;;;5011557;28;20230;-82
2023/08/28 02:08:46;;;;;;;0.50;0.50;;;10.80;99.90;;;;;;5027586;28;20191;-82
2023/08/28 02:11:12;;;;;;;0.60;0.60;;;10.80;99.90;;;;;;5012680;28;20277;-82
2023/08/28 02:13:38;;;;;;;0.50;0.50;;;10.80;99.90;;;;;;5012889;28;20658;-82
2023/08/28 02:16:04;;;;;;;0.95;0.68;;;10.90;99.90;;;;;;5013303;28;20190;-82
2023/08/28 02:18:33;;;;;;;0.50;0.50;;;10.90;99.90;;;;;;5011813;28;20203;-82
2023/08/28 02:20:58;;;;;;;0.50;0.50;;;11.00;99.90;;;;;;5013013;28;20215;-81
2023/08/28 02:23:28;;;;;;;0.55;0.55;;;11.00;99.90;;;;;;5011136;28;20284;-82
2023/08/28 02:25:54;;;;;;;0.60;0.60;;;11.10;99.90;;;;;;5011564;28;20191;-82
2023/08/28 02:28:20;;;;;;;0.60;0.60;;;11.10;99.90;;;;;;5011489;28;20218;-82
2023/08/28 02:30:46;;;;;;;0.50;0.50;;;11.20;99.90;;;;;;5011671;28;20245;-82
2023/08/28 02:33:13;;;;;;;0.50;0.50;;;11.20;99.90;;;;;;5011820;28;20201;-82
2023/08/28 02:35:39;;;;;;;0.50;0.50;;;11.20;99.90;;;;;;5011777;28;20662;-83
2023/08/28 02:38:08;;;;;;;0.60;0.60;;;11.30;99.90;;;;;;5013012;28;20234;-82
2023/08/28 02:40:36;;;;;;;0.50;0.50;;;11.30;99.90;;;;;;5011733;28;20273;-82
2023/08/28 02:43:05;;;;;;;0.50;0.50;;;11.40;99.90;;;;;;5012954;28;20191;-83
2023/08/28 02:45:33;;;;;;;0.93;0.93;;;11.40;99.90;;;;;;5011868;28;20203;-82
2023/08/28 02:47:59;;;;;;;0.40;0.40;;;11.40;99.90;;;;;;5013112;28;20214;-82
2023/08/28 02:50:24;;;;;;;0.50;0.50;;;11.40;99.90;;;;;;5011561;28;20195;-82
2023/08/28 02:52:50;;;;;;;0.50;0.50;;;11.40;99.90;;;;;;5011726;28;20206;-82
2023/08/28 02:55:16;;;;;;;0.50;0.50;;;11.40;99.90;;;;;;5012985;28;20197;-82
2023/08/28 02:57:41;;;;;;;0.73;0.73;;;11.40;99.90;;;;;;5012988;28;20197;-83
2023/08/28 03:00:08;;;;;;;0.50;0.50;;;11.50;99.90;;;;;;5011116;28;20226;-83
2023/08/28 03:02:34;;;;;;;0.40;0.40;;;11.50;99.90;;;;;;5011955;28;20199;-82
2023/08/28 03:04:59;;;;;;;0.50;0.50;;;11.50;99.90;;;;;;5011398;28;20242;-82
2023/08/28 03:07:25;;;;;;;0.50;0.50;;;11.60;99.90;;;;;;5011355;28;20681;-82
2023/08/28 03:09:51;;;;;;;0.50;0.50;;;11.60;99.90;;;;;;5011590;28;20294;-82
2023/08/28 03:12:16;;;;;;;0.52;0.52;;;11.60;99.90;;;;;;5013088;28;20195;-81
2023/08/28 03:14:42;;;;;;;0.50;0.50;;;11.60;99.90;;;;;;5012759;28;20186;-82
2023/08/28 03:17:08;;;;;;;0.55;0.55;;;11.70;99.90;;;;;;5027962;28;20210;-82
2023/08/28 03:19:34;;;;;;;0.60;0.60;;;11.70;99.90;;;;;;5012723;28;20669;-82
2023/08/28 03:22:00;;;;;;;1.85;1.05;;;11.70;99.90;;;;;;5016542;28;20207;-82
2023/08/28 03:24:25;;;;;;;0.50;0.50;;;11.70;99.90;;;;;;5015902;28;20195;-82
2023/08/28 03:26:51;;;;;;;0.50;0.50;;;11.70;99.90;;;;;;5015254;28;20618;-83
2023/08/28 03:29:17;;;;;;;0.60;0.60;;;11.80;99.90;;;;;;5015966;28;20222;-83
2023/08/28 03:31:46;;;;;;;0.50;0.50;;;11.80;99.90;;;;;;5014592;28;20683;-82
2023/08/28 03:34:11;;;;;;;0.38;0.38;;;11.80;99.90;;;;;;5014321;28;20562;-83
2023/08/28 03:36:37;;;;;;;0.45;0.45;;;11.80;99.90;;;;;;5015847;28;20289;-83
2023/08/28 03:39:03;;;;;;;0.50;0.50;;;11.80;99.90;;;;;;5014781;28;20199;-83
2023/08/28 03:41:29;;;;;;;0.60;0.60;;;11.80;99.90;;;;;;5015817;28;20222;-83
2023/08/28 03:43:54;;;;;;;0.50;0.50;;;11.90;99.90;;;;;;5014903;28;20198;-83
2023/08/28 03:46:20;;;;;;;0.50;0.50;;;11.90;99.90;;;;;;5015701;28;20298;-82
2023/08/28 03:48:46;;;;;;;0.50;0.50;;;11.90;99.90;;;;;;5016006;28;20183;-83
2023/08/28 03:51:12;;;;;;;0.50;0.50;;;11.90;99.90;;;;;;5031091;28;20198;-82
2023/08/28 03:53:38;;;;;;;0.32;0.32;;;11.90;99.90;;;;;;5014510;28;20205;-83
2023/08/28 03:56:03;;;;;;;0.50;0.50;;;12.00;99.90;;;;;;5015524;28;20195;-83
2023/08/28 03:58:29;;;;;;;0.40;0.40;;;12.00;99.90;;;;;;5013918;28;20558;-83
2023/08/28 04:00:55;;;;;;;0.50;0.50;;;12.00;99.90;;;;;;5015369;28;20195;-83
2023/08/28 04:03:21;;;;;;;0.40;0.40;;;12.00;99.90;;;;;;5013710;28;20282;-83
2023/08/28 04:05:48;;;;;;;0.50;0.50;;;12.00;99.90;;;;;;5013837;28;20269;-82
2023/08/28 04:08:14;;;;;;;0.50;0.50;;;12.00;99.90;;;;;;5014809;28;20234;-83
2023/08/28 04:10:41;;;;;;;0.40;0.40;;;12.00;99.90;;;;;;5013451;28;20194;-83
2023/08/28 04:13:08;;;;;;;0.50;0.50;;;12.00;99.90;;;;;;5015650;28;20623;-83
2023/08/28 04:15:34;;;;;;;0.55;0.55;;;12.10;99.90;;;;;;5014120;28;20203;-83
2023/08/28 04:17:59;;;;;;;0.70;0.70;;;12.10;99.90;;;;;;5013819;28;20622;-83
2023/08/28 04:20:25;;;;;;;0.50;0.50;;;12.10;99.90;;;;;;5013631;28;20222;-83
2023/08/28 04:22:51;;;;;;;0.98;0.98;;;12.10;99.90;;;;;;5015117;28;20253;-83
2023/08/28 04:25:17;;;;;;;0.50;0.50;;;12.20;99.90;;;;;;5014952;28;20195;-83
2023/08/28 04:27:43;;;;;;;1.75;0.85;;;12.20;99.90;;;;;;5013269;28;20678;-83
2023/08/28 04:30:10;;;;;;;0.52;0.52;;;12.20;99.90;;;;;;5013491;28;20610;-83
2023/08/28 04:32:36;;;;;;;0.50;0.50;;;12.20;99.90;;;;;;5013237;28;20194;-83
2023/08/28 04:35:02;;;;;;;0.40;0.40;;;12.30;99.90;;;;;;5013738;28;20606;-83
2023/08/28 04:37:28;;;;;;;0.50;0.50;;;12.30;99.90;;;;;;5013873;28;20202;-84
2023/08/28 04:39:54;;;;;;;0.60;0.60;;;12.30;99.90;;;;;;5014950;28;20199;-83
2023/08/28 04:42:20;;;;;;;0.40;0.40;;;12.30;99.90;;;;;;5013467;28;20234;-83
2023/08/28 04:44:46;;;;;;;0.40;0.40;;;12.40;99.90;;;;;;5013435;28;20238;-85
2023/08/28 04:47:15;;;;;;;0.50;0.50;;;12.40;99.90;;;;;;5014802;28;20238;-85
2023/08/28 04:49:41;;;;;;;0.50;0.50;;;12.40;99.90;;;;;;5029787;28;20206;-83
2023/08/28 04:52:06;;;;;;;0.50;0.50;;;12.40;99.90;;;;;;5013505;28;20195;-83
2023/08/28 04:54:33;;;;;;;0.68;0.68;;;12.40;99.90;;;;;;5013496;28;20199;-83
2023/08/28 04:56:59;;;;;;;0.47;0.47;;;12.40;99.90;;;;;;5030643;28;20707;-84
2023/08/28 04:59:25;;;;;;;0.50;0.50;;;12.40;99.90;;;;;;5014452;28;20285;-83
2023/08/28 05:01:51;;;;;;;0.52;0.52;;;12.50;99.90;;;;;;5013136;28;20203;-83
2023/08/28 05:04:16;;;;;;;0.60;0.60;;;12.50;99.90;;;;;;5014155;28;20730;-83
2023/08/28 05:06:42;;;;;;;0.40;0.40;;;12.50;99.90;;;;;;5014355;28;20704;-83
2023/08/28 05:09:08;;;;;;;0.65;0.65;;;12.50;99.90;;;;;;5014626;28;20687;-83
2023/08/28 05:11:34;;;;;;;0.45;0.45;;;12.60;99.90;;;;;;5014415;28;20269;-83
2023/08/28 05:13:59;;;;;;;0.52;0.52;;;12.70;99.90;;;;;;5013534;28;20253;-83
2023/08/28 05:16:25;;;;;;;0.40;0.40;;;12.70;99.90;;;;;;5012686;28;20209;-82
2023/08/28 05:18:51;;;;;;;0.50;0.50;;;12.70;99.90;;;;;;5012660;28;20210;-83
2023/08/28 05:21:17;;;;;;;0.40;0.40;;;12.80;99.90;;;;;;5014354;28;20209;-83
2023/08/28 05:23:42;;;;;;;0.50;0.50;;;12.80;99.90;;;;;;5013773;28;20203;-83
2023/08/28 05:26:08;;;;;;;0.40;0.40;;;12.90;99.90;;;;;;5015612;28;20195;-83
2023/08/28 05:28:37;;;;;;;0.55;0.55;;;12.90;99.90;;;;;;5016237;28;20257;-83
2023/08/28 05:31:04;;;;;;;0.80;0.80;;;13.00;99.90;;;;;;5015832;28;20567;-82
2023/08/28 05:33:31;;;;;;;0.40;0.40;;;13.00;99.90;;;;;;5014623;28;20203;-83
2023/08/28 05:35:56;;;;;;;0.55;0.55;;;13.20;99.90;;;;;;5014757;28;20206;-83
2023/08/28 05:38:22;;;;;;;0.50;0.50;;;13.20;99.90;;;;;;5015368;28;20203;-82
2023/08/28 05:40:48;;;;;;;1.08;0.88;;;13.30;99.90;;;;;;5013393;28;20199;-83
2023/08/28 05:43:14;;;;;;;0.50;0.50;;;13.40;99.90;;;;;;5013333;28;20199;-83
2023/08/28 05:45:40;;;;;;;0.73;0.73;;;13.40;99.90;;;;;;5012545;28;20206;-82
2023/08/28 05:48:06;;;;;;;0.57;0.57;;;13.40;99.90;;;;;;5011866;28;20210;-79
2023/08/28 05:50:31;;;;;;;0.50;0.50;;;13.50;99.90;;;;;;5012881;28;20294;-79
2023/08/28 05:52:59;;;;;;;0.55;0.55;;;13.50;99.90;;;;;;5011824;28;20565;-79
2023/08/28 05:55:25;;;;;;;1.65;1.10;;;13.50;99.90;;;;;;5012936;28;20193;-80
2023/08/28 05:57:51;;;;;;;0.50;0.50;;;13.60;99.90;;;;;;5012966;28;20282;-79
2023/08/28 06:00:17;;;;;;;1.05;0.93;;;13.60;99.90;;;;;;5012674;28;20225;-79
2023/08/28 06:02:43;;;;;;;0.73;0.73;;;13.70;99.90;;;;;;5011397;28;20225;-80
2023/08/28 06:05:09;;;;;;;0.60;0.60;;;13.70;99.90;;;;;;5011453;28;20234;-79
2023/08/28 06:07:35;;;;;;;0.50;0.50;;;13.70;99.90;;;;;;5012654;28;20210;-79
2023/08/28 06:10:01;;;;;;;0.63;0.63;;;13.70;99.90;;;;;;5011598;28;20785;-80
2023/08/28 06:12:27;;;;;;;0.55;0.55;;;13.80;99.90;;;;;;5011113;28;20206;-78
2023/08/28 06:14:53;;;;;;;1.40;1.17;;;13.90;99.90;;;;;;5012670;28;20191;-78
2023/08/28 06:17:18;;;;;;;0.50;0.50;;;13.90;99.90;;;;;;5011353;28;20562;-78
2023/08/28 06:19:44;;;;;;;1.15;1.05;;;13.90;99.90;;;;;;5011316;28;20206;-78
2023/08/28 06:22:10;;;;;;;2.40;1.77;;;13.90;99.90;;;;;;5011318;28;20214;-78
2023/08/28 06:24:35;;;;;;;0.77;0.77;;;13.90;99.90;;;;;;5012741;28;20662;-77
2023/08/28 06:27:02;;;;;;;1.10;0.93;;;14.00;99.90;;;;;;5012471;28;20206;-78
2023/08/28 06:29:28;;;;;;;0.47;0.47;;;14.10;99.90;;;;;;5010964;28;20199;-78
2023/08/28 06:31:53;;;;;;;0.68;0.68;;;14.10;99.90;;;;;;5011130;28;20676;-79
2023/08/28 06:34:19;;;;;;;0.60;0.60;;;14.20;99.90;;;;;;5011013;28;20199;-79
2023/08/28 06:36:49;;;;;;;0.50;0.50;;;14.30;99.90;;;;;;5012281;28;20281;-79
2023/08/28 06:39:15;;;;;;;1.00;0.95;;;14.30;99.90;;;;;;5012489;28;20198;-78
2023/08/28 06:41:41;;;;;;;0.50;0.50;;;14.30;99.90;;;;;;5010858;28;20248;-78
2023/08/28 06:44:07;;;;;;;0.85;0.85;;;14.30;99.90;;;;;;5012082;28;20743;-78
2023/08/28 06:46:33;;;;;;;0.52;0.52;;;14.40;99.90;;;;;;5010726;28;20226;-78
2023/08/28 06:48:59;;;;;;;0.60;0.60;;;14.40;99.90;;;;;;5012421;28;20219;-78
2023/08/28 06:51:24;;;;;;;2.95;0.82;;;14.30;99.90;;;;;;5012026;28;20188;-78
2023/08/28 06:53:51;;;;;;;0.52;0.52;;;14.40;99.90;;;;;;5027282;28;20202;-78
2023/08/28 06:56:17;;;;;;;0.43;0.43;;;14.40;99.90;;;;;;5014801;28;20198;-78
2023/08/28 06:58:43;;;;;;;0.73;0.73;;;14.50;99.90;;;;;;5014919;28;20199;-78
2023/08/28 07:01:09;;;;;;;0.50;0.50;;;14.50;99.90;;;;;;5016141;28;20186;-78
2023/08/28 07:03:35;;;;;;;0.40;0.40;;;14.70;99.90;;;;;;5014340;28;20206;-78
2023/08/28 07:06:00;;;;;;;0.40;0.40;;;14.60;99.90;;;;;;5014494;28;20245;-79
2023/08/28 07:08:26;;;;;;;0.40;0.40;;;14.70;99.90;;;;;;5015884;28;20275;-78
2023/08/28 07:10:52;;;;;;;1.75;1.15;;;14.80;99.90;;;;;;5014513;28;20191;-78
2023/08/28 07:13:18;;;;;;;0.50;0.50;;;14.80;99.90;;;;;;5014740;28;20199;-78
2023/08/28 07:15:44;;;;;;;0.40;0.40;;;14.90;99.90;;;;;;5015610;28;20222;-78
2023/08/28 07:18:09;;;;;;;0.77;0.77;;;15.00;99.90;;;;;;5014651;28;20207;-79
2023/08/28 07:20:35;;;;;;;0.40;0.40;;;15.20;99.90;;;;;;5030834;28;20202;-78
2023/08/28 07:23:01;;;;;;;0.28;0.28;;;15.20;99.90;;;;;;5014399;28;20293;-79
2023/08/28 07:25:27;;;;;;;0.65;0.65;;;15.40;99.90;;;;;;5014094;28;20236;-79
2023/08/28 07:27:54;;;;;;;1.13;1.05;;;15.50;99.90;;;;;;5014326;28;20211;-78
2023/08/28 07:30:20;;;;;;;0.82;0.82;;;15.40;99.90;;;;;;5014265;28;20199;-78
2023/08/28 07:32:47;;;;;;;0.70;0.70;;;15.40;99.90;;;;;;5014254;28;20284;-78
2023/08/28 07:35:12;;;;;;;0.40;0.40;;;15.40;99.90;;;;;;5030833;28;20202;-78
2023/08/28 07:37:38;;;;;;;0.55;0.55;;;15.50;99.90;;;;;;5030460;28;20198;-78
2023/08/28 07:40:05;;;;;;;0.70;0.70;;;15.60;99.90;;;;;;5015341;28;20195;-78
2023/08/28 07:42:34;;;;;;;0.52;0.52;;;15.60;99.90;;;;;;5015245;28;20281;-78
2023/08/28 07:45:01;;;;;;;0.40;0.40;;;15.80;99.90;;;;;;5015554;28;20258;-78
2023/08/28 07:47:27;;;;;;;0.30;0.30;;;15.90;99.90;;;;;;5015242;28;20238;-78
2023/08/28 07:49:53;;;;;;;0.40;0.40;;;16.00;99.90;;;;;;5015567;28;20195;-78
2023/08/28 07:52:19;;;;;;;0.55;0.47;;;16.20;99.90;;;;;;5013708;28;20657;-78
2023/08/28 07:54:45;;;;;;;2.30;0.70;;;16.20;99.90;;;;;;5013991;28;20314;-78
2023/08/28 07:57:10;;;;;;;0.35;0.35;;;16.30;99.90;;;;;;5015181;28;20203;-78
2023/08/28 07:59:36;;;;;;;0.40;0.40;;;16.40;99.90;;;;;;5015016;28;20205;-78
2023/08/28 08:02:04;;;;;;;0.30;0.30;;;16.30;99.90;;;;;;5013678;28;20256;-79
2023/08/28 08:04:31;;;;;;;0.45;0.45;;;16.30;99.90;;;;;;5014384;28;20231;-78
2023/08/28 08:06:56;;;;;;;0.70;0.68;;;16.30;99.90;;;;;;5012869;28;20207;-79
2023/08/28 08:09:22;;;;;;;0.20;0.20;;;16.30;99.90;;;;;;5013660;28;20199;-83
2023/08/28 08:11:48;;;;;;;0.43;0.43;;;16.40;99.90;;;;;;5030138;28;20195;-83
2023/08/28 08:14:14;;;;;;;0.30;0.30;;;16.40;99.90;;;;;;5030454;28;20206;-84
2023/08/28 08:16:39;;;;;;;0.30;0.30;;;16.40;99.90;;;;;;5014872;28;20206;-83
2023/08/28 08:19:05;;;;;;;0.70;0.70;;;16.40;99.90;;;;;;5014941;28;20191;-83
2023/08/28 08:21:31;;;;;;;0.30;0.30;;;16.40;99.90;;;;;;5013446;28;20210;-83
2023/08/28 08:23:57;;;;;;;0.50;0.50;;;16.40;99.90;;;;;;5013727;28;20202;-83
2023/08/28 08:26:22;;;;;;;0.52;0.52;;;16.40;99.90;;;;;;5013235;28;20257;-83
2023/08/28 08:28:48;;;;;;;0.65;0.50;;;16.40;99.90;;;;;;5013565;28;20198;-84
2023/08/28 08:31:14;;;;;;;0.50;0.50;;;16.50;99.90;;;;;;5014674;28;20677;-84
2023/08/28 08:33:40;;;;;;;0.28;0.28;;;16.50;99.90;;;;;;5013471;28;20604;-84
2023/08/28 08:36:06;;;;;;;0.30;0.30;;;16.70;99.90;;;;;;5014761;28;20241;-83
2023/08/28 08:38:32;;;;;;;0.30;0.30;;;16.70;99.90;;;;;;5013184;28;20203;-85
2023/08/28 08:41:01;;;;;;;0.30;0.30;;;16.70;99.90;;;;;;5013381;28;20603;-78
2023/08/28 08:43:27;;;;;;;0.30;0.30;;;16.80;99.90;;;;;;5014240;28;20725;-78
2023/08/28 08:46:00;;;;;;;0.30;0.30;;;16.90;99.90;;;;;;5013120;28;20202;-77
2023/08/28 08:48:27;;;;;;;0.35;0.35;;;16.80;99.90;;;;;;5013867;28;20214;-77
2023/08/28 08:51:03;;;;;;;10.88;0.95;;;16.80;99.90;;;;;;5014164;28;20209;-77
2023/08/28 08:53:42;;;;;;;0.30;0.30;;;16.90;99.90;;;;;;5013820;28;20191;-77
2023/08/28 08:56:12;;;;;;;0.32;0.32;;;17.00;99.90;;;;;;5029103;28;20209;-77
2023/08/28 08:58:39;;;;;;;0.40;0.40;;;16.90;99.90;;;;;;5013756;28;20191;-77
2023/08/28 09:01:06;;;;;;;0.38;0.38;;;16.60;99.90;;;;;;5026230;28;20224;-77
2023/08/28 09:03:32;;;;;;;0.32;0.30;;;16.50;99.90;;;;;;5048790;28;20285;-77
2023/08/28 09:05:59;;;;;;;0.95;0.60;;;16.30;99.90;;;;;;5032182;28;20708;-77
2023/08/28 09:08:26;;;;;;;0.30;0.30;;;16.30;99.90;;;;;;5022152;28;20210;-76
2023/08/28 09:10:58;;;;;;;0.60;0.55;;;16.20;99.90;;;;;;5013473;28;20199;-77
2023/08/28 09:13:23;;;;;;;0.50;0.50;;;16.20;99.90;;;;;;5012749;28;20570;-84
2023/08/28 09:15:49;;;;;;;0.88;0.82;;;16.30;99.90;;;;;;5014242;28;20201;-83
2023/08/28 09:18:16;;;;;;;0.63;0.63;;;16.30;99.90;;;;;;5018376;28;20342;-83
2023/08/28 09:20:42;;;;;;;1.10;1.00;;;16.30;99.90;;;;;;5014456;28;20654;-83
2023/08/28 09:23:07;;;;;;;0.30;0.30;;;16.30;99.90;;;;;;5014289;28;20202;-83
2023/08/28 09:25:34;;;;;;;0.32;0.32;;;16.40;99.90;;;;;;5012599;28;20206;-82
2023/08/28 09:28:00;;;;;;;0.80;0.50;;;16.50;99.90;;;;;;5013911;28;20293;-83
2023/08/28 09:30:36;;;;;;;0.35;0.35;;;16.50;99.90;;;;;;5013463;28;20244;-84
2023/08/28 09:33:04;;;;;;;0.60;0.38;;;16.60;99.90;;;;;;5014554;28;20191;-84
2023/08/28 09:35:41;;;;;;;0.60;0.60;;;16.80;99.90;;;;;;5012945;28;20191;-84
2023/08/28 09:38:07;;;;;;;0.52;0.52;;;17.10;99.90;;;;;;5012563;28;20202;-84
2023/08/28 09:40:40;;;;;;;0.47;0.47;;;17.20;99.90;;;;;;5012431;28;20203;-84
2023/08/28 09:43:15;;;;;;;0.40;0.40;;;17.20;99.90;;;;;;5012774;28;20203;-84
2023/08/28 09:45:42;;;;;;;0.35;0.32;;;17.40;99.90;;;;;;5012396;28;20194;-84
2023/08/28 09:48:09;;;;;;;0.22;0.22;;;17.70;99.90;;;;;;5013719;28;20674;-84
2023/08/28 09:50:39;;;;;;;0.43;0.43;;;18.10;99.90;;;;;;5013745;28;20650;-84
2023/08/28 09:53:15;;;;;;;0.30;0.30;;;18.30;99.90;;;;;;5012317;28;20217;-84
2023/08/28 09:55:48;;;;;;;0.63;0.40;;;18.40;99.90;;;;;;5012280;28;20691;-83
2023/08/28 09:58:14;;;;;;;0.35;0.32;;;19.00;99.90;;;;;;5012235;28;20199;-83
2023/08/28 10:00:41;;;;;;;0.32;0.32;;;19.40;99.90;;;;;;5013445;28;20731;-82
2023/08/28 10:03:12;;;;;;;0.57;0.57;;;19.40;99.90;;;;;;5013458;28;20245;-84
2023/08/28 10:05:39;;;;;;;0.20;0.20;;;19.60;99.90;;;;;;5011577;28;20238;-83
2023/08/28 10:08:07;;;;;;;0.20;0.20;;;19.60;99.90;;;;;;5011981;28;20242;-84
2023/08/28 10:10:34;;;;;;;0.20;0.20;;;19.70;99.90;;;;;;5013070;28;20191;-84
2023/08/28 10:13:04;;;;;;;0.20;0.20;;;19.50;99.90;;;;;;5013666;28;20475;-84
2023/08/28 10:15:31;;;;;;;0.30;0.30;;;19.40;99.90;;;;;;5028360;28;20230;-84
2023/08/28 10:18:04;;;;;;;0.32;0.32;;;19.50;99.90;;;;;;5012149;28;20199;-83
2023/08/28 10:20:31;;;;;;;0.88;0.50;;;20.00;99.90;;;;;;5013005;28;20662;-82
2023/08/28 10:22:58;;;;;;;0.40;0.40;;;20.50;99.90;;;;;;5012834;28;20199;-84
2023/08/28 10:25:29;;;;;;;0.20;0.20;;;20.90;99.90;;;;;;5012829;28;20264;-84
2023/08/28 10:27:58;;;;;;;0.20;0.20;;;21.10;99.90;;;;;;5028291;28;20213;-81
2023/08/28 10:30:26;;;;;;;0.40;0.40;;;20.80;99.90;;;;;;5011868;28;20253;-81
2023/08/28 10:32:55;;;;;;;0.20;0.20;;;20.80;99.90;;;;;;5011313;28;20195;-82
2023/08/28 10:35:22;;;;;;;1.65;1.13;;;21.00;99.90;;;;;;5012457;28;20724;-81
2023/08/28 10:37:49;;;;;;;0.30;0.30;;;20.90;99.90;;;;;;5011173;28;20253;-81
2023/08/28 10:40:17;;;;;;;0.30;0.30;;;20.80;99.90;;;;;;5012483;28;20195;-81
2023/08/28 10:42:44;;;;;;;0.35;0.35;;;21.20;99.90;;;;;;5012415;28;20195;-81
2023/08/28 10:45:11;;;;;;;0.45;0.40;;;21.60;99.90;;;;;;5011137;28;20659;-81
2023/08/28 10:47:37;;;;;;;0.20;0.20;;;21.70;99.90;;;;;;5027603;28;20293;-81
2023/08/28 10:50:05;;;;;;;0.73;0.45;;;21.50;99.90;;;;;;5011102;28;20658;-81
2023/08/28 10:52:31;;;;;;;0.25;0.25;;;21.20;99.90;;;;;;5010832;28;20260;-81
2023/08/28 10:55:05;;;;;;;0.38;0.38;;;20.80;99.90;;;;;;5012467;28;20191;-81
2023/08/28 10:57:31;;;;;;;0.28;0.28;;;20.10;99.90;;;;;;5010962;28;20202;-81
2023/08/28 11:00:25;;;;;;;0.55;0.55;;;19.80;99.90;;;;;;5012092;28;20209;-81
2023/08/28 11:03:08;;;;;;;0.52;0.52;;;19.70;99.90;;;;;;5012023;28;20735;-81
2023/08/28 11:05:35;;;;;;;0.22;0.22;;;19.60;99.90;;;;;;5010349;28;20748;-81
2023/08/28 11:08:04;;;;;;;0.38;0.38;;;19.30;99.90;;;;;;5010655;28;20227;-81
2023/08/28 11:10:31;;;;;;;0.52;0.30;;;19.20;99.90;;;;;;5010563;28;20195;-81
2023/08/28 11:13:07;;;;;;;0.38;0.38;;;18.80;99.90;;;;;;5012007;28;20197;-81
2023/08/28 11:15:40;;;;;;;1.13;0.75;;;18.70;99.90;;;;;;5011912;28;20214;-81
2023/08/28 11:18:18;;;;;;;0.28;0.28;;;18.70;99.90;;;;;;5012155;28;20199;-81
2023/08/28 11:20:52;;;;;;;0.20;0.20;;;18.60;99.90;;;;;;5027231;28;20199;-81
2023/08/28 11:23:42;;;;;;;0.25;0.25;;;18.70;99.90;;;;;;5027292;28;20569;-80
2023/08/28 11:26:17;;;;;;;0.30;0.30;;;18.60;99.90;;;;;;5027356;28;20674;-81
2023/08/28 11:28:51;;;;;;;0.47;0.47;;;18.70;99.90;;;;;;5011919;28;20364;-81
2023/08/28 11:31:19;;;;;;;0.30;0.30;;;18.80;99.90;;;;;;5010674;28;20239;-81
2023/08/28 11:33:49;;;;;;;0.20;0.20;;;18.70;99.90;;;;;;5010768;28;20563;-81
2023/08/28 11:36:18;;;;;;;0.50;0.50;;;18.70;99.90;;;;;;5010618;28;20195;-81
2023/08/28 11:38:44;;;;;;;0.50;0.50;;;18.60;99.90;;;;;;5010857;28;20609;-84
2023/08/28 11:41:11;;;;;;;0.20;0.20;;;18.50;99.90;;;;;;5012462;28;20197;-83
2023/08/28 11:43:38;;;;;;;0.40;0.40;;;18.30;99.90;;;;;;5013350;28;20226;-83
2023/08/28 11:46:04;;;;;;;0.65;0.65;;;18.20;99.90;;;;;;5015268;28;20194;-83
2023/08/28 11:48:35;;;;;;;0.35;0.35;;;18.10;99.90;;;;;;5015253;28;20203;-83
2023/08/28 11:51:03;;;;;;;0.22;0.22;;;18.10;99.90;;;;;;5015494;28;20559;-83
2023/08/28 11:53:40;;;;;;;0.40;0.40;;;18.30;99.90;;;;;;5013957;28;20245;-83
2023/08/28 11:56:07;;;;;;;2.00;0.70;;;18.30;99.90;;;;;;5013803;28;20513;-83
2023/08/28 11:58:34;;;;;;;0.63;0.28;;;18.30;99.90;;;;;;5015010;28;20658;-83
2023/08/28 12:01:05;;;;;;;0.40;0.40;;;18.50;99.90;;;;;;5013872;28;20226;-83
2023/08/28 12:03:31;;;;;;;0.30;0.30;;;18.60;99.90;;;;;;5013544;28;20206;-83
2023/08/28 12:06:17;;;;;;;0.47;0.47;;;18.90;99.90;;;;;;5013566;28;20238;-83
2023/08/28 12:08:46;;;;;;;0.40;0.40;;;19.30;99.90;;;;;;5013579;28;20581;-83
2023/08/28 12:11:13;;;;;;;0.40;0.40;;;19.70;99.90;;;;;;5013562;28;20191;-83
2023/08/28 12:13:39;;;;;;;0.30;0.30;;;20.50;99.90;;;;;;5014948;28;20213;-83
2023/08/28 12:16:17;;;;;;;22.08;0.50;;;21.10;99.90;;;;;;5005186;28;20204;-84
2023/08/28 12:18:54;;;;;;;0.30;0.30;;;21.70;99.90;;;;;;4994189;28;20556;-84
2023/08/28 12:21:35;;;;;;;0.25;0.25;;;21.50;99.90;;;;;;4993783;28;20253;-84
2023/08/28 12:24:01;;;;;;;0.20;0.20;;;21.40;99.90;;;;;;4995141;28;20195;-83
2023/08/28 12:26:30;;;;;;;0.30;0.30;;;21.10;99.90;;;;;;4993526;28;20199;-84
2023/08/28 12:28:56;;;;;;;0.20;0.20;;;21.30;99.90;;;;;;4994207;28;20203;-84
2023/08/28 12:31:31;;;;;;;0.20;0.20;;;21.70;99.90;;;;;;4994848;28;20195;-84
2023/08/28 12:34:05;;;;;;;0.30;0.30;;;22.00;99.90;;;;;;4995284;28;20262;-84
2023/08/28 12:36:51;;;;;;;0.28;0.28;;;21.90;99.90;;;;;;4995015;28;20254;-82
2023/08/28 12:39:21;;;;;;;0.35;0.35;;;22.10;99.90;;;;;;4995218;28;20198;-83
2023/08/28 12:41:54;;;;;;;0.20;0.20;;;21.80;99.90;;;;;;5010058;28;20311;-87
2023/08/28 12:44:21;;;;;;;0.20;0.20;;;21.70;99.90;;;;;;5009644;28;20235;-86
2023/08/28 12:46:48;;;;;;;0.35;0.35;;;21.70;99.90;;;;;;5009704;28;20246;-87
2023/08/28 12:49:16;;;;;;;0.30;0.30;;;21.70;99.90;;;;;;5010188;28;20230;-79
2023/08/28 12:51:43;;;;;;;0.43;0.43;;;21.30;99.90;;;;;;5009693;28;20669;-79